createdAt,value
2022-09-01T00:01:51.694Z,23.53
2022-09-01T00:04:23.204Z,23.57
2022-09-01T00:06:50.298Z,23.48
2022-09-01T00:09:19.981Z,23.45
2022-09-01T00:11:51.467Z,23.77
2022-09-01T00:14:29.657Z,23.94
2022-09-01T00:17:00.103Z,23.95
2022-09-01T00:19:27.485Z,23.90
2022-09-01T00:21:54.257Z,23.94
2022-09-01T00:24:21.978Z,23.91
2022-09-01T00:26:49.207Z,23.92
2022-09-01T00:29:16.645Z,24.00
2022-09-01T00:31:45.247Z,23.81
2022-09-01T00:34:12.486Z,23.80
2022-09-01T00:36:39.333Z,23.78
2022-09-01T00:39:07.537Z,23.69
2022-09-01T00:41:38.349Z,23.51
2022-09-01T00:44:12.189Z,23.13
2022-09-01T00:46:50.365Z,23.44
2022-09-01T00:49:31.562Z,23.42
2022-09-01T00:52:07.397Z,23.21
2022-09-01T00:54:38.169Z,23.08
2022-09-01T00:57:06.203Z,22.79
2022-09-01T00:59:33.367Z,23.15
2022-09-01T01:02:00.187Z,23.13
2022-09-01T01:04:27.257Z,23.07
2022-09-01T01:07:02.300Z,22.99
2022-09-01T01:09:32.086Z,23.04
2022-09-01T01:12:00.358Z,22.96
2022-09-01T01:14:31.437Z,22.85
2022-09-01T01:16:59.789Z,22.56
2022-09-01T01:20:20.390Z,22.91
2022-09-01T01:23:12.115Z,22.93
2022-09-01T01:25:49.950Z,22.93
2022-09-01T01:28:22.154Z,23.00
2022-09-01T01:31:01.839Z,23.03
2022-09-01T01:33:40.745Z,23.07
2022-09-01T01:36:29.436Z,22.95
2022-09-01T01:38:57.915Z,22.90
2022-09-01T01:41:24.752Z,22.91
2022-09-01T01:43:53.319Z,22.76
2022-09-01T01:46:22.707Z,22.91
2022-09-01T01:48:52.476Z,22.86
2022-09-01T01:51:25.040Z,22.80
2022-09-01T01:53:52.818Z,22.64
2022-09-01T01:56:22.814Z,22.68
2022-09-01T01:58:54.159Z,22.86
2022-09-01T02:01:25.350Z,22.81
2022-09-01T02:03:54.805Z,22.75
2022-09-01T02:06:24.992Z,22.63
2022-09-01T02:08:58.125Z,22.65
2022-09-01T02:11:28.661Z,22.47
2022-09-01T02:13:56.318Z,22.68
2022-09-01T02:16:25.147Z,22.67
2022-09-01T02:18:53.986Z,22.78
2022-09-01T02:21:23.604Z,22.80
2022-09-01T02:24:03.504Z,22.74
2022-09-01T02:26:51.902Z,22.79
2022-09-01T02:29:22.011Z,22.70
2022-09-01T02:31:52.059Z,22.58
2022-09-01T02:34:24.384Z,22.57
2022-09-01T02:36:54.438Z,22.62
2022-09-01T02:39:26.995Z,22.64
2022-09-01T02:41:54.615Z,22.60
2022-09-01T02:44:27.869Z,22.64
2022-09-01T02:46:54.986Z,22.65
2022-09-01T02:49:25.843Z,22.65
2022-09-01T02:51:54.166Z,22.75
2022-09-01T02:54:24.608Z,22.74
2022-09-01T02:56:54.708Z,22.68
2022-09-01T02:59:26.361Z,22.65
2022-09-01T03:01:55.012Z,22.49
2022-09-01T03:04:24.023Z,22.62
2022-09-01T03:06:54.750Z,22.38
2022-09-01T03:09:25.132Z,22.52
2022-09-01T03:11:53.428Z,22.35
2022-09-01T03:14:22.351Z,22.35
2022-09-01T03:16:49.216Z,22.35
2022-09-01T03:19:16.724Z,22.20
2022-09-01T03:21:45.843Z,22.29
2022-09-01T03:24:17.938Z,22.07
2022-09-01T03:26:49.978Z,22.18
2022-09-01T03:29:18.065Z,22.05
2022-09-01T03:31:45.176Z,22.00
2022-09-01T03:34:12.675Z,22.17
2022-09-01T03:36:50.462Z,22.03
2022-09-01T03:39:27.024Z,22.08
2022-09-01T03:41:56.436Z,22.08
2022-09-01T03:44:23.680Z,22.17
2022-09-01T03:46:51.858Z,22.12
2022-09-01T03:49:24.972Z,22.15
2022-09-01T03:51:53.994Z,22.14
2022-09-01T03:54:23.400Z,22.06
2022-09-01T03:56:50.895Z,22.07
2022-09-01T03:59:19.480Z,22.08
2022-09-01T04:01:48.085Z,21.93
2022-09-01T04:04:16.686Z,21.91
2022-09-01T04:06:45.624Z,22.02
2022-09-01T04:09:13.616Z,21.99
2022-09-01T04:11:46.358Z,21.92
2022-09-01T04:14:15.186Z,21.94
2022-09-01T04:17:02.319Z,21.97
2022-09-01T04:19:30.590Z,21.93
2022-09-01T04:22:00.169Z,21.79
2022-09-01T04:24:32.611Z,21.73
2022-09-01T04:27:02.550Z,21.74
2022-09-01T04:29:31.942Z,21.72
2022-09-01T04:32:05.356Z,21.71
2022-09-01T04:34:40.046Z,21.72
2022-09-01T04:37:15.256Z,21.56
2022-09-01T04:39:51.406Z,21.57
2022-09-01T04:42:24.365Z,21.55
2022-09-01T04:44:53.591Z,21.67
2022-09-01T04:47:30.184Z,21.53
2022-09-01T04:50:12.943Z,21.76
2022-09-01T04:52:42.368Z,21.58
2022-09-01T04:55:18.646Z,21.73
2022-09-01T04:57:47.694Z,21.58
2022-09-01T05:00:22.530Z,21.68
2022-09-01T05:03:03.111Z,21.59
2022-09-01T05:05:44.760Z,21.69
2022-09-01T05:08:14.525Z,21.63
2022-09-01T05:10:53.377Z,21.63
2022-09-01T05:13:32.006Z,21.56
2022-09-01T05:16:07.591Z,21.49
2022-09-01T05:18:35.495Z,21.38
2022-09-01T05:21:09.798Z,21.33
2022-09-01T05:23:40.666Z,21.43
2022-09-01T05:26:17.907Z,21.31
2022-09-01T05:28:50.162Z,21.43
2022-09-01T05:31:20.033Z,21.40
2022-09-01T05:33:48.431Z,21.44
2022-09-01T05:36:19.382Z,21.57
2022-09-01T05:38:48.057Z,21.52
2022-09-01T05:41:16.909Z,21.70
2022-09-01T05:43:55.140Z,21.69
2022-09-01T05:46:26.685Z,23.28
2022-09-01T05:48:54.809Z,24.72
2022-09-01T05:51:43.238Z,25.62
2022-09-01T05:54:12.100Z,26.63
2022-09-01T05:56:43.990Z,26.40
2022-09-01T05:59:23.327Z,26.87
2022-09-01T06:01:53.888Z,28.28
2022-09-01T06:04:22.974Z,28.74
2022-09-01T06:07:08.416Z,29.77
2022-09-01T06:09:41.681Z,30.03
2022-09-01T06:12:17.611Z,29.90
2022-09-01T06:14:46.815Z,29.40
2022-09-01T06:17:16.775Z,28.82
2022-09-01T06:19:44.555Z,29.72
2022-09-01T06:22:11.540Z,30.37
2022-09-01T06:24:44.094Z,29.95
2022-09-01T06:27:12.245Z,29.73
2022-09-01T06:29:42.254Z,30.30
2022-09-01T06:32:10.507Z,30.51
2022-09-01T06:34:51.257Z,31.28
2022-09-01T06:37:22.651Z,31.29
2022-09-01T06:39:52.923Z,30.00
2022-09-01T06:42:20.319Z,30.10
2022-09-01T06:44:52.683Z,31.77
2022-09-01T06:47:20.172Z,30.68
2022-09-01T06:49:46.912Z,31.47
2022-09-01T06:52:24.037Z,30.96
2022-09-01T06:54:55.160Z,33.03
2022-09-01T07:03:08.539Z,31.77
2022-09-01T07:06:03.087Z,32.82
2022-09-01T07:14:27.140Z,32.24
2022-09-01T07:17:23.217Z,30.96
2022-09-01T07:19:56.133Z,32.59
2022-09-01T07:23:03.541Z,31.13
2022-09-01T07:25:13.043Z,31.45
2022-09-01T07:28:00.526Z,30.79
2022-09-01T07:30:29.091Z,30.31
2022-09-01T07:32:56.090Z,31.48
2022-09-01T07:35:25.116Z,32.26
2022-09-01T07:41:43.316Z,31.57
2022-09-01T07:43:51.269Z,28.64
2022-09-01T07:51:57.158Z,28.44
2022-09-01T07:54:27.619Z,28.37
2022-09-01T07:56:56.089Z,27.82
2022-09-01T07:59:23.806Z,28.78
2022-09-01T08:01:57.431Z,27.96
2022-09-01T08:04:24.587Z,27.66
2022-09-01T08:06:51.955Z,27.06
2022-09-01T08:09:33.065Z,27.54
2022-09-01T08:12:07.455Z,27.92
2022-09-01T08:14:39.136Z,27.57
2022-09-01T08:19:55.369Z,29.03
2022-09-01T08:22:46.410Z,28.16
2022-09-01T08:25:24.736Z,26.97
2022-09-01T08:27:59.698Z,27.63
2022-09-01T08:30:27.892Z,27.98
2022-09-01T08:32:55.341Z,27.28
2022-09-01T08:35:23.520Z,27.80
2022-09-01T08:37:50.624Z,28.22
2022-09-01T08:40:19.741Z,28.29
2022-09-01T08:43:04.590Z,28.01
2022-09-01T08:45:34.224Z,27.70
2022-09-01T08:49:02.622Z,28.55
2022-09-01T08:51:26.693Z,28.16
2022-09-01T08:54:36.324Z,28.02
2022-09-01T08:57:11.393Z,27.64
2022-09-01T08:59:57.632Z,28.19
2022-09-01T09:02:54.581Z,27.54
2022-09-01T09:05:32.100Z,27.67
2022-09-01T09:08:34.321Z,27.51
2022-09-01T09:11:01.132Z,27.64
2022-09-01T09:13:30.932Z,27.79
2022-09-01T09:16:13.189Z,28.23
2022-09-01T09:18:57.010Z,28.14
2022-09-01T09:21:36.241Z,28.09
2022-09-01T09:24:22.834Z,27.58
2022-09-01T09:26:53.664Z,28.26
2022-09-01T09:29:23.354Z,27.70
2022-09-01T09:32:04.552Z,27.80
2022-09-01T09:34:39.767Z,27.63
2022-09-01T09:37:30.279Z,27.76
2022-09-01T09:40:03.151Z,28.00
2022-09-01T09:42:34.899Z,27.76
2022-09-01T09:45:04.334Z,28.63
2022-09-01T09:47:44.507Z,27.98
2022-09-01T09:50:23.055Z,28.37
2022-09-01T09:52:51.987Z,27.38
2022-09-01T09:55:30.805Z,27.48
2022-09-01T09:58:00.525Z,27.46
2022-09-01T10:00:34.231Z,27.05
2022-09-01T10:03:10.087Z,27.53
2022-09-01T10:05:40.939Z,28.09
2022-09-01T10:08:16.604Z,27.98
2022-09-01T10:10:58.044Z,28.06
2022-09-01T10:13:29.157Z,28.04
2022-09-01T10:16:03.641Z,27.46
2022-09-01T10:18:37.356Z,27.30
2022-09-01T10:21:09.607Z,27.03
2022-09-01T10:23:38.718Z,27.22
2022-09-01T10:26:10.550Z,27.02
2022-09-01T10:28:55.921Z,27.25
2022-09-01T10:31:23.174Z,27.40
2022-09-01T10:33:51.784Z,27.54
2022-09-01T10:36:20.037Z,27.32
2022-09-01T10:38:53.561Z,26.93
2022-09-01T10:41:53.322Z,27.19
2022-09-01T10:44:50.042Z,27.40
2022-09-01T10:47:29.922Z,27.78
2022-09-01T10:49:59.719Z,27.63
2022-09-01T10:52:44.005Z,27.58
2022-09-01T10:55:25.395Z,27.43
2022-09-01T11:01:46.683Z,27.93
2022-09-01T11:03:57.121Z,27.13
2022-09-01T11:06:35.071Z,27.44
2022-09-01T11:09:05.231Z,27.07
2022-09-01T11:11:41.686Z,27.40
2022-09-01T11:14:20.063Z,27.40
2022-09-01T11:17:11.345Z,27.71
2022-09-01T11:19:44.142Z,27.64
2022-09-01T11:22:14.241Z,27.47
2022-09-01T11:24:41.694Z,27.75
2022-09-01T11:27:11.608Z,27.40
2022-09-01T11:30:11.064Z,27.64
2022-09-01T11:32:42.645Z,27.14
2022-09-01T11:35:19.545Z,27.25
2022-09-01T11:37:56.304Z,27.54
2022-09-01T11:40:29.638Z,27.04
2022-09-01T11:43:02.489Z,27.65
2022-09-01T11:45:33.105Z,28.22
2022-09-01T11:48:08.051Z,27.80
2022-09-01T11:50:37.885Z,27.78
2022-09-01T11:53:07.568Z,28.31
2022-09-01T11:55:36.397Z,28.18
2022-09-01T11:58:17.163Z,27.56
2022-09-01T12:00:45.234Z,27.53
2022-09-01T12:03:25.235Z,27.63
2022-09-01T12:06:00.418Z,27.87
2022-09-01T12:08:30.552Z,27.47
2022-09-01T12:11:23.780Z,27.94
2022-09-01T12:14:01.271Z,27.69
2022-09-01T12:16:29.725Z,28.16
2022-09-01T12:18:59.245Z,28.07
2022-09-01T12:21:42.870Z,28.15
2022-09-01T12:24:20.819Z,27.71
2022-09-01T12:26:49.948Z,28.08
2022-09-01T12:29:17.656Z,27.91
2022-09-01T12:31:50.427Z,27.81
2022-09-01T12:34:38.113Z,28.25
2022-09-01T12:37:21.922Z,27.83
2022-09-01T12:39:54.950Z,28.28
2022-09-01T12:42:21.737Z,28.23
2022-09-01T12:44:56.411Z,28.12
2022-09-01T12:47:48.205Z,28.31
2022-09-01T12:50:16.459Z,28.10
2022-09-01T12:52:52.356Z,28.02
2022-09-01T12:55:48.738Z,27.83
2022-09-01T12:58:22.369Z,27.73
2022-09-01T13:01:01.398Z,27.73
2022-09-01T13:03:34.659Z,27.42
2022-09-01T13:06:03.943Z,27.56
2022-09-01T13:08:35.044Z,27.54
2022-09-01T13:11:03.927Z,27.62
2022-09-01T13:13:30.815Z,27.72
2022-09-01T13:16:04.489Z,27.74
2022-09-01T13:18:31.749Z,27.84
2022-09-01T13:20:59.090Z,27.89
2022-09-01T13:23:26.138Z,28.17
2022-09-01T13:25:53.028Z,28.27
2022-09-01T13:36:43.716Z,27.88
2022-09-01T13:39:12.836Z,28.10
2022-09-01T13:41:39.558Z,28.26
2022-09-01T13:44:06.939Z,28.12
2022-09-01T13:46:33.751Z,28.21
2022-09-01T13:49:04.848Z,27.79
2022-09-01T13:51:53.920Z,27.26
2022-09-01T13:54:21.384Z,28.14
2022-09-01T13:56:49.429Z,27.92
2022-09-01T13:59:18.621Z,27.96
2022-09-01T14:01:46.301Z,27.88
2022-09-01T14:04:13.322Z,28.25
2022-09-01T14:06:41.592Z,27.93
2022-09-01T14:09:08.374Z,27.90
2022-09-01T14:11:36.509Z,28.11
2022-09-01T14:14:03.772Z,28.01
2022-09-01T14:16:30.831Z,28.15
2022-09-01T14:18:59.737Z,27.96
2022-09-01T14:21:26.860Z,27.94
2022-09-01T14:23:53.848Z,28.22
2022-09-01T14:26:20.642Z,27.62
2022-09-01T14:28:48.625Z,27.86
2022-09-01T14:31:18.497Z,28.03
2022-09-01T14:33:45.566Z,27.85
2022-09-01T14:36:22.117Z,28.01
2022-09-01T14:38:49.311Z,27.95
2022-09-01T14:41:21.903Z,27.51
2022-09-01T14:43:50.049Z,28.08
2022-09-01T14:46:18.549Z,28.26
2022-09-01T14:48:47.119Z,27.71
2022-09-01T14:54:16.495Z,27.08
2022-09-01T14:57:27.341Z,27.55
2022-09-01T14:59:30.051Z,28.14
2022-09-01T15:01:57.024Z,28.12
2022-09-01T15:04:23.907Z,27.97
2022-09-01T15:06:50.844Z,27.78
2022-09-01T15:09:19.205Z,28.00
2022-09-01T15:11:46.585Z,27.61
2022-09-01T15:14:13.539Z,27.29
2022-09-01T15:16:41.695Z,27.86
2022-09-01T15:19:09.864Z,28.14
2022-09-01T15:21:37.751Z,27.57
2022-09-01T15:24:05.793Z,27.70
2022-09-01T15:26:32.962Z,27.94
2022-09-01T15:28:59.832Z,27.71
2022-09-01T15:31:33.235Z,27.88
2022-09-01T15:34:02.402Z,27.96
2022-09-01T15:36:29.869Z,28.07
2022-09-01T15:38:57.522Z,27.84
2022-09-01T15:41:27.100Z,27.70
2022-09-01T15:43:54.076Z,27.81
2022-09-01T15:46:21.531Z,27.75
2022-09-01T15:48:49.113Z,28.13
2022-09-01T15:51:32.582Z,28.28
2022-09-01T15:54:11.248Z,27.80
2022-09-01T15:56:38.240Z,28.09
2022-09-01T15:59:06.795Z,27.96
2022-09-01T16:01:42.428Z,27.86
2022-09-01T16:04:19.158Z,28.25
2022-09-01T16:06:49.490Z,28.02
2022-09-01T16:09:18.421Z,28.07
2022-09-01T16:11:45.271Z,28.06
2022-09-01T16:14:12.685Z,28.43
2022-09-01T16:16:58.449Z,28.46
2022-09-01T16:19:48.171Z,28.38
2022-09-01T16:22:32.241Z,28.01
2022-09-01T16:25:07.785Z,27.98
2022-09-01T16:27:45.694Z,28.38
2022-09-01T16:30:21.262Z,28.14
2022-09-01T16:32:49.307Z,27.96
2022-09-01T16:35:19.742Z,28.04
2022-09-01T16:38:04.235Z,27.85
2022-09-01T16:40:34.006Z,28.07
2022-09-01T16:43:10.382Z,28.02
2022-09-01T16:45:52.392Z,27.84
2022-09-01T16:48:44.208Z,27.86
2022-09-01T16:51:23.333Z,28.17
2022-09-01T16:53:58.785Z,27.80
2022-09-01T16:57:10.452Z,27.45
2022-09-01T16:59:53.337Z,27.75
2022-09-01T17:02:31.372Z,27.92
2022-09-01T17:05:16.879Z,27.81
2022-09-01T17:08:08.733Z,27.91
2022-09-01T17:10:43.099Z,27.94
2022-09-01T17:13:17.110Z,28.17
2022-09-01T17:15:49.249Z,28.03
2022-09-01T17:18:23.140Z,27.68
2022-09-01T17:20:58.503Z,27.93
2022-09-01T17:23:30.285Z,27.81
2022-09-01T17:26:01.885Z,28.00
2022-09-01T17:28:38.139Z,27.66
2022-09-01T17:31:17.734Z,27.66
2022-09-01T17:34:18.194Z,27.72
2022-09-01T17:37:08.805Z,27.40
2022-09-01T17:39:44.958Z,27.57
2022-09-01T17:42:27.499Z,27.47
2022-09-01T17:44:57.580Z,27.59
2022-09-01T17:47:44.695Z,27.78
2022-09-01T17:50:25.717Z,27.46
2022-09-01T17:53:20.302Z,27.71
2022-09-01T17:56:42.658Z,27.40
2022-09-01T17:59:22.492Z,27.69
2022-09-01T18:01:51.937Z,27.58
2022-09-01T18:04:35.895Z,27.49
2022-09-01T18:07:19.781Z,27.23
2022-09-01T18:09:51.674Z,27.31
2022-09-01T18:12:24.196Z,27.36
2022-09-01T18:14:59.471Z,27.24
2022-09-01T18:17:39.269Z,27.24
2022-09-01T18:20:25.072Z,27.32
2022-09-01T18:23:13.163Z,27.28
2022-09-01T18:25:47.070Z,27.05
2022-09-01T18:28:14.962Z,27.22
2022-09-01T18:30:57.955Z,27.20
2022-09-01T18:34:10.196Z,27.08
2022-09-01T18:36:58.150Z,26.94
2022-09-01T18:39:52.561Z,27.02
2022-09-01T18:42:39.698Z,27.12
2022-09-01T18:45:09.696Z,26.96
2022-09-01T18:47:44.217Z,26.87
2022-09-01T18:50:21.958Z,26.99
2022-09-01T18:53:20.915Z,27.01
2022-09-01T18:56:29.050Z,26.88
2022-09-01T18:59:50.765Z,26.77
2022-09-01T19:02:29.851Z,26.76
2022-09-01T19:05:07.727Z,26.82
2022-09-01T19:08:17.360Z,26.72
2022-09-01T19:10:54.046Z,26.69
2022-09-01T19:14:01.091Z,26.83
2022-09-01T19:17:26.306Z,26.74
2022-09-01T19:20:08.654Z,26.56
2022-09-01T19:23:10.735Z,26.62
2022-09-01T19:25:40.126Z,26.64
2022-09-01T19:28:16.650Z,26.35
2022-09-01T19:30:48.545Z,26.34
2022-09-01T19:33:20.284Z,26.33
2022-09-01T19:35:48.361Z,26.42
2022-09-01T19:38:20.264Z,26.52
2022-09-01T19:40:49.196Z,26.47
2022-09-01T19:43:18.092Z,26.46
2022-09-01T19:46:06.098Z,26.42
2022-09-01T19:48:37.571Z,26.45
2022-09-01T19:51:29.088Z,26.60
2022-09-01T19:54:07.327Z,26.55
2022-09-01T19:56:41.698Z,26.60
2022-09-01T19:59:28.167Z,26.29
2022-09-01T20:01:59.613Z,26.34
2022-09-01T20:04:57.241Z,26.18
2022-09-01T20:07:44.926Z,26.45
2022-09-01T20:10:17.813Z,26.51
2022-09-01T20:12:53.219Z,26.28
2022-09-01T20:15:44.977Z,26.08
2022-09-01T20:18:26.796Z,26.10
2022-09-01T20:20:55.754Z,26.09
2022-09-01T20:23:28.832Z,26.09
2022-09-01T20:26:01.276Z,26.21
2022-09-01T20:28:50.662Z,26.27
2022-09-01T20:31:25.902Z,26.12
2022-09-01T20:34:07.803Z,26.07
2022-09-01T20:36:41.006Z,26.09
2022-09-01T20:39:31.314Z,25.96
2022-09-01T20:42:16.195Z,25.96
2022-09-01T20:45:15.497Z,25.91
2022-09-01T20:47:55.210Z,25.94
2022-09-01T20:50:42.736Z,25.95
2022-09-01T20:53:21.048Z,25.43
2022-09-01T20:56:07.687Z,25.73
2022-09-01T20:58:44.162Z,25.82
2022-09-01T21:01:37.215Z,25.78
2022-09-01T21:04:38.280Z,25.92
2022-09-01T21:07:05.264Z,25.73
2022-09-01T21:09:42.963Z,25.68
2022-09-01T21:12:23.625Z,25.70
2022-09-01T21:15:03.951Z,25.77
2022-09-01T21:17:46.261Z,25.71
2022-09-01T21:20:21.978Z,25.74
2022-09-01T21:22:50.349Z,25.63
2022-09-01T21:25:17.026Z,25.69
2022-09-01T21:27:52.732Z,25.55
2022-09-01T21:30:20.467Z,25.65
2022-09-01T21:32:47.897Z,25.61
2022-09-01T21:35:22.926Z,25.56
2022-09-01T21:37:52.016Z,25.55
2022-09-01T21:40:25.205Z,25.55
2022-09-01T21:42:57.858Z,25.45
2022-09-01T21:45:25.538Z,25.46
2022-09-01T21:47:53.170Z,25.51
2022-09-01T21:50:23.391Z,25.48
2022-09-01T21:52:53.071Z,25.31
2022-09-01T21:55:22.897Z,25.28
2022-09-01T21:57:53.741Z,25.31
2022-09-01T22:00:25.814Z,25.21
2022-09-01T22:02:53.463Z,25.29
2022-09-01T22:05:20.973Z,25.33
2022-09-01T22:07:48.138Z,25.31
2022-09-01T22:10:17.957Z,25.28
2022-09-01T22:12:46.059Z,25.09
2022-09-01T22:15:14.768Z,25.14
2022-09-01T22:17:41.912Z,24.97
2022-09-01T22:20:10.286Z,25.09
2022-09-01T22:22:39.196Z,24.91
2022-09-01T22:25:18.129Z,25.07
2022-09-01T22:27:45.038Z,25.12
2022-09-01T22:30:15.495Z,25.15
2022-09-01T22:32:45.361Z,25.06
2022-09-01T22:35:13.033Z,25.04
2022-09-01T22:37:40.195Z,24.98
2022-09-01T22:40:09.608Z,24.92
2022-09-01T22:42:36.537Z,24.86
2022-09-01T22:45:04.128Z,24.79
2022-09-01T22:47:30.828Z,24.93
2022-09-01T22:50:02.105Z,24.74
2022-09-01T22:52:29.953Z,24.78
2022-09-01T22:54:57.385Z,24.77
2022-09-01T22:57:24.567Z,24.75
2022-09-01T22:59:51.317Z,24.85
2022-09-01T23:02:19.460Z,24.81
2022-09-01T23:04:46.827Z,24.79
2022-09-01T23:07:13.783Z,24.78
2022-09-01T23:09:40.542Z,24.82
2022-09-01T23:12:07.752Z,24.87
2022-09-01T23:14:34.834Z,24.80
2022-09-01T23:17:01.680Z,24.39
2022-09-01T23:19:28.876Z,24.20
2022-09-01T23:21:55.550Z,24.51
2022-09-01T23:24:22.292Z,24.45
2022-09-01T23:26:49.340Z,24.52
2022-09-01T23:29:16.769Z,24.57
2022-09-01T23:31:43.980Z,24.53
2022-09-01T23:34:10.826Z,24.37
2022-09-01T23:36:37.546Z,24.37
2022-09-01T23:39:05.811Z,24.50
2022-09-01T23:41:34.844Z,24.53
2022-09-01T23:44:03.812Z,24.39
2022-09-01T23:46:33.459Z,24.26
2022-09-01T23:49:01.556Z,24.37
2022-09-01T23:51:28.530Z,24.25
2022-09-01T23:53:55.324Z,24.30
2022-09-01T23:56:24.043Z,23.99
2022-09-01T23:58:51.525Z,24.22
